< Typhoon 197023 1970 Season Typhoon 197025 >
Typhoon 197024 (OPAL)
General InformationTrack Information on Google Maps || Disaster Info.ResourceGoogle EarthGE AnimationAtom FeedGeoJSON
Detalied Best Track (Time Zone = UTC)
Year Month Day Hour Lat. Long. Pressure (hPa) Wind (kt) Class Image Chart
1970 11 11 00 10.0 128.5 1010 0 2 -- Chart
1970 11 11 06 11.0 128.0 1008 0 2 -- Chart
1970 11 11 12 11.0 126.8 1008 0 2 -- Chart
1970 11 11 18 11.0 125.5 1008 0 2 -- Chart
1970 11 12 00 11.0 124.0 1008 0 2 -- Chart
1970 11 12 06 11.0 123.0 1006 0 2 -- Chart
1970 11 12 12 11.0 122.0 1008 0 2 -- Chart
1970 11 12 18 11.3 120.9 1008 0 2 -- Chart
1970 11 13 00 11.9 120.2 1006 0 2 -- Chart
1970 11 13 06 12.8 119.5 1006 0 2 -- Chart
1970 11 13 12 13.7 119.2 1006 0 2 -- Chart
1970 11 13 18 14.6 118.7 1006 0 2 -- Chart
1970 11 14 00 15.2 118.0 1006 0 2 -- Chart
1970 11 14 06 15.5 117.0 1004 0 9 -- Chart
1970 11 14 12 15.5 116.0 996 0 9 -- Chart
1970 11 14 18 15.5 115.0 994 0 9 -- Chart
1970 11 15 00 15.5 114.5 992 0 9 -- Chart
1970 11 15 06 15.0 114.1 990 0 9 -- Chart
1970 11 15 12 14.8 113.3 990 0 9 -- Chart
1970 11 15 18 14.3 112.5 998 0 9 -- Chart
1970 11 16 00 13.4 111.8 1000 0 9 -- Chart
1970 11 16 06 12.5 111.2 1000 0 9 -- Chart
1970 11 16 12 11.6 110.6 1000 0 9 -- Chart
1970 11 16 18 10.4 110.0 1002 0 9 -- Chart
1970 11 17 00 9.7 109.2 1002 0 9 -- Chart
1970 11 17 06 8.5 108.4 1004 0 2 -- Chart
1970 11 17 12 7.2 107.5 1006 0 2 -- Chart
Japan Meteorological Agency Best Track Data | Correction Date : 1989-06-01
< Typhoon 197023 1970 Season Typhoon 197025 >

Help